createdAt,value
2022-07-31T00:04:17.138Z,99.90
2022-07-31T00:09:53.991Z,99.90
2022-07-31T00:14:44.015Z,99.90
2022-07-31T00:19:48.783Z,99.90
2022-07-31T00:24:52.183Z,99.90
2022-07-31T00:29:55.559Z,99.90
2022-07-31T00:35:00.211Z,99.90
2022-07-31T00:40:04.186Z,99.90
2022-07-31T00:45:08.737Z,99.90
2022-07-31T00:50:14.361Z,99.90
2022-07-31T00:55:18.192Z,99.90
2022-07-31T01:00:23.436Z,99.90
2022-07-31T01:05:28.336Z,99.90
2022-07-31T01:10:43.013Z,99.90
2022-07-31T01:15:47.707Z,99.90
2022-07-31T01:20:56.427Z,99.90
2022-07-31T01:26:12.412Z,99.90
2022-07-31T01:31:27.455Z,99.90
2022-07-31T01:36:35.045Z,99.90
2022-07-31T01:41:43.111Z,99.90
2022-07-31T01:46:48.908Z,99.90
2022-07-31T01:51:53.139Z,99.90
2022-07-31T01:56:59.806Z,99.90
2022-07-31T02:02:05.649Z,99.90
2022-07-31T02:07:13.349Z,99.90
2022-07-31T02:12:17.065Z,99.90
2022-07-31T02:17:38.232Z,99.90
2022-07-31T02:22:41.838Z,99.90
2022-07-31T02:27:54.363Z,99.90
2022-07-31T02:33:04.812Z,99.90
2022-07-31T02:38:17.105Z,99.90
2022-07-31T02:43:27.841Z,99.90
2022-07-31T02:48:33.305Z,99.90
2022-07-31T02:53:37.971Z,99.90
2022-07-31T02:58:42.352Z,99.90
2022-07-31T03:03:47.091Z,99.90
2022-07-31T03:08:50.434Z,99.90
2022-07-31T03:13:55.673Z,99.90
2022-07-31T03:19:01.471Z,99.90
2022-07-31T03:24:05.618Z,99.90
2022-07-31T03:29:41.666Z,99.90
2022-07-31T03:34:36.246Z,99.90
2022-07-31T03:39:39.742Z,99.90
2022-07-31T03:44:44.754Z,99.90
2022-07-31T03:49:50.457Z,99.90
2022-07-31T03:54:53.977Z,99.90
2022-07-31T03:59:58.645Z,99.90
2022-07-31T04:05:09.795Z,99.90
2022-07-31T04:10:13.523Z,99.90
2022-07-31T04:15:16.809Z,99.90
2022-07-31T04:20:21.958Z,99.90
2022-07-31T04:25:25.190Z,99.90
2022-07-31T04:30:28.720Z,99.90
2022-07-31T04:35:33.601Z,99.90
2022-07-31T04:40:36.890Z,99.90
2022-07-31T04:45:40.262Z,99.90
2022-07-31T04:50:44.879Z,99.90
2022-07-31T04:56:08.568Z,99.90
2022-07-31T05:01:12.027Z,99.90
2022-07-31T05:06:21.120Z,99.90
2022-07-31T05:11:24.812Z,99.90
2022-07-31T05:16:29.220Z,99.90
2022-07-31T05:21:33.986Z,99.90
2022-07-31T05:26:52.874Z,99.90
2022-07-31T05:31:59.366Z,99.90
2022-07-31T05:37:04.828Z,99.90
2022-07-31T05:42:08.572Z,99.90
2022-07-31T05:47:11.810Z,99.90
2022-07-31T05:52:18.528Z,99.90
2022-07-31T05:57:33.598Z,99.90
2022-07-31T06:02:37.531Z,99.90
2022-07-31T06:07:47.235Z,99.90
2022-07-31T06:12:56.024Z,99.90
2022-07-31T06:17:59.836Z,99.90
2022-07-31T06:23:14.518Z,99.90
2022-07-31T06:28:38.856Z,99.90
2022-07-31T06:33:51.217Z,99.90
2022-07-31T06:38:57.467Z,99.90
2022-07-31T06:44:00.917Z,99.90
2022-07-31T06:49:08.580Z,99.90
2022-07-31T06:54:13.705Z,99.90
2022-07-31T06:59:40.337Z,99.90
2022-07-31T07:05:00.027Z,99.90
2022-07-31T07:10:06.271Z,99.90
2022-07-31T07:15:10.751Z,99.90
2022-07-31T07:20:14.655Z,99.90
2022-07-31T07:30:47.343Z,99.90
2022-07-31T07:35:50.664Z,98.10
2022-07-31T07:40:55.379Z,97.20
2022-07-31T07:45:58.601Z,95.90
2022-07-31T07:51:01.956Z,90.20
2022-07-31T07:56:07.285Z,81.30
2022-07-31T08:01:10.663Z,78.60
2022-07-31T08:06:14.009Z,73.10
2022-07-31T08:11:18.955Z,73.70
2022-07-31T08:16:22.737Z,76.40
2022-07-31T08:21:26.342Z,79.90
2022-07-31T08:26:51.651Z,71.80
2022-07-31T08:31:54.994Z,72.10
2022-07-31T08:36:58.411Z,77.00
2022-07-31T08:42:06.032Z,78.70
2022-07-31T08:47:10.004Z,74.70
2022-07-31T08:52:20.834Z,70.50
2022-07-31T08:57:27.024Z,68.90
2022-07-31T09:02:30.398Z,68.20
2022-07-31T09:07:33.571Z,69.50
2022-07-31T09:12:38.167Z,68.90
2022-07-31T09:17:41.661Z,68.40
2022-07-31T09:23:06.967Z,67.80
2022-07-31T09:28:11.671Z,67.40
2022-07-31T09:33:16.730Z,67.80
2022-07-31T09:38:21.221Z,66.80
2022-07-31T09:43:31.409Z,67.90
2022-07-31T09:48:35.767Z,67.00
2022-07-31T09:53:45.478Z,61.70
2022-07-31T09:58:50.141Z,65.30
2022-07-31T10:03:54.859Z,71.50
2022-07-31T10:08:59.181Z,65.80
2022-07-31T10:14:06.070Z,66.60
2022-07-31T10:19:14.301Z,69.00
2022-07-31T10:24:27.743Z,70.10
2022-07-31T10:29:33.427Z,73.20
2022-07-31T10:34:37.161Z,69.60
2022-07-31T10:39:50.628Z,71.60
2022-07-31T10:45:04.082Z,69.70
2022-07-31T10:50:09.376Z,70.60
2022-07-31T10:55:22.345Z,75.00
2022-07-31T11:00:29.919Z,74.40
2022-07-31T11:05:33.641Z,74.60
2022-07-31T11:11:03.407Z,72.30
2022-07-31T11:16:08.765Z,73.60
2022-07-31T11:21:37.461Z,72.30
2022-07-31T11:26:41.458Z,77.40
2022-07-31T11:31:46.924Z,78.20
2022-07-31T11:36:51.775Z,76.30
2022-07-31T11:41:55.180Z,76.80
2022-07-31T11:47:03.444Z,78.50
2022-07-31T11:52:30.859Z,76.30
2022-07-31T11:57:51.707Z,73.60
2022-07-31T12:03:04.236Z,73.70
2022-07-31T12:08:08.262Z,74.60
2022-07-31T12:13:16.348Z,74.00
2022-07-31T12:18:21.482Z,71.80
2022-07-31T12:23:41.182Z,71.80
2022-07-31T12:29:04.876Z,73.40
2022-07-31T12:34:29.979Z,76.60
2022-07-31T12:39:54.381Z,77.00
2022-07-31T12:45:19.118Z,76.20
2022-07-31T12:50:26.533Z,77.30
2022-07-31T12:55:33.214Z,77.30
2022-07-31T13:00:40.123Z,72.60
2022-07-31T13:05:48.118Z,74.20
2022-07-31T13:10:55.722Z,77.30
2022-07-31T13:15:59.314Z,78.90
2022-07-31T13:21:08.226Z,73.00
2022-07-31T13:26:12.999Z,77.20
2022-07-31T13:31:16.526Z,76.90
2022-07-31T13:36:21.726Z,74.80
2022-07-31T13:41:26.296Z,71.40
2022-07-31T13:46:31.430Z,73.90
2022-07-31T13:51:49.830Z,73.60
2022-07-31T13:56:54.503Z,72.80
2022-07-31T14:02:03.035Z,74.20
2022-07-31T14:07:13.402Z,74.80
2022-07-31T14:12:16.923Z,72.50
2022-07-31T14:17:25.306Z,74.80
2022-07-31T14:22:31.105Z,75.40
2022-07-31T14:27:35.315Z,74.60
2022-07-31T14:32:39.719Z,73.50
2022-07-31T14:37:44.753Z,74.30
2022-07-31T14:42:48.884Z,75.60
2022-07-31T14:47:52.746Z,74.70
2022-07-31T14:52:58.824Z,74.90
2022-07-31T14:58:02.451Z,76.10
2022-07-31T15:03:07.784Z,75.20
2022-07-31T15:08:14.987Z,77.00
2022-07-31T15:13:20.009Z,75.50
2022-07-31T15:18:25.885Z,74.60
2022-07-31T15:23:35.882Z,76.30
2022-07-31T15:28:39.615Z,77.80
2022-07-31T15:33:43.010Z,76.90
2022-07-31T15:38:47.782Z,77.60
2022-07-31T15:43:51.165Z,76.30
2022-07-31T15:48:54.554Z,77.10
2022-07-31T15:53:59.365Z,78.10
2022-07-31T15:59:04.109Z,77.90
2022-07-31T16:04:16.405Z,77.60
2022-07-31T16:09:23.999Z,76.80
2022-07-31T16:14:27.516Z,76.90
2022-07-31T16:19:31.142Z,79.70
2022-07-31T16:24:39.545Z,78.90
2022-07-31T16:29:59.274Z,78.40
2022-07-31T16:35:07.205Z,77.90
2022-07-31T16:40:30.758Z,79.40
2022-07-31T16:45:36.206Z,77.10
2022-07-31T16:50:39.844Z,77.10
2022-07-31T16:55:55.401Z,76.10
2022-07-31T17:01:04.281Z,77.50
2022-07-31T17:06:07.755Z,79.90
2022-07-31T17:11:12.550Z,81.80
2022-07-31T17:16:15.905Z,79.60
2022-07-31T17:21:19.497Z,81.10
2022-07-31T17:26:32.493Z,82.00
2022-07-31T17:31:36.315Z,82.70
2022-07-31T17:36:39.819Z,82.50
2022-07-31T17:41:45.630Z,83.10
2022-07-31T17:46:48.992Z,83.20
2022-07-31T17:51:58.692Z,83.00
2022-07-31T17:57:05.806Z,84.20
2022-07-31T18:02:10.193Z,84.30
2022-07-31T18:07:17.931Z,84.60
2022-07-31T18:12:24.459Z,85.30
2022-07-31T18:17:30.929Z,85.70
2022-07-31T18:22:34.901Z,85.80
2022-07-31T18:27:57.176Z,86.70
2022-07-31T18:33:00.616Z,88.00
2022-07-31T18:38:04.099Z,90.60
2022-07-31T18:43:09.700Z,91.00
2022-07-31T18:48:14.430Z,92.10
2022-07-31T18:53:17.983Z,92.50
2022-07-31T18:58:24.716Z,93.20
2022-07-31T19:03:30.003Z,93.70
2022-07-31T19:08:33.531Z,94.40
2022-07-31T19:13:38.236Z,93.70
2022-07-31T19:18:41.771Z,94.60
2022-07-31T19:23:47.463Z,95.00
2022-07-31T19:28:52.400Z,95.80
2022-07-31T19:33:56.803Z,96.00
2022-07-31T19:39:00.097Z,96.30
2022-07-31T19:44:07.036Z,96.50
2022-07-31T19:49:11.026Z,97.40
2022-07-31T19:54:14.581Z,98.40
2022-07-31T19:59:21.026Z,99.00
2022-07-31T20:04:25.602Z,99.90
2022-07-31T20:09:30.740Z,99.90
2022-07-31T20:14:35.472Z,99.90
2022-07-31T20:20:14.376Z,99.90
2022-07-31T20:25:02.258Z,99.90
2022-07-31T20:30:28.850Z,99.90
2022-07-31T20:35:47.919Z,99.90
2022-07-31T20:40:55.754Z,99.90
2022-07-31T20:46:01.331Z,99.90
2022-07-31T20:51:07.002Z,99.90
2022-07-31T20:56:10.445Z,99.90
2022-07-31T21:01:16.037Z,99.90
2022-07-31T21:06:21.334Z,99.90
2022-07-31T21:11:31.395Z,99.90
2022-07-31T21:16:36.703Z,99.90
2022-07-31T21:21:40.073Z,99.90
2022-07-31T21:26:45.736Z,99.90
2022-07-31T21:31:51.889Z,99.90
2022-07-31T21:36:55.636Z,99.90
2022-07-31T21:41:59.516Z,99.90
2022-07-31T21:47:05.903Z,99.90
2022-07-31T21:52:12.236Z,99.90
2022-07-31T21:57:15.539Z,99.90
2022-07-31T22:02:20.251Z,99.90
2022-07-31T22:07:35.493Z,99.90
2022-07-31T22:12:38.745Z,99.90
2022-07-31T22:17:43.538Z,99.90
2022-07-31T22:22:47.429Z,99.90
2022-07-31T22:27:55.556Z,99.90
2022-07-31T22:33:01.665Z,99.90
2022-07-31T22:38:05.169Z,99.90
2022-07-31T22:44:12.196Z,99.90
2022-07-31T22:48:34.021Z,99.90
2022-07-31T22:53:38.031Z,99.90
2022-07-31T22:58:41.421Z,99.90
2022-07-31T23:03:46.547Z,99.90
2022-07-31T23:08:53.764Z,99.90
2022-07-31T23:13:58.829Z,99.90
2022-07-31T23:19:04.480Z,99.90
2022-07-31T23:24:08.641Z,99.90
2022-07-31T23:29:12.215Z,99.90
2022-07-31T23:34:17.247Z,99.90
2022-07-31T23:39:23.211Z,99.90
2022-07-31T23:44:26.949Z,99.90
2022-07-31T23:49:32.109Z,99.90
2022-07-31T23:54:35.335Z,99.90
2022-07-31T23:59:38.567Z,99.90
